createdAt,value
2022-10-09T00:04:07.467Z,102492.63
2022-10-09T00:09:09.106Z,102479.28
2022-10-09T00:14:10.580Z,102484.03
2022-10-09T00:19:12.117Z,102480.19
2022-10-09T00:24:13.605Z,102495.66
2022-10-09T00:29:15.085Z,102495.25
2022-10-09T00:34:16.559Z,102496.34
2022-10-09T00:39:18.455Z,102492.09
2022-10-09T00:44:57.848Z,102494.19
2022-10-09T00:50:16.103Z,102485.25
2022-10-09T00:55:18.198Z,102491.13
2022-10-09T01:00:20.312Z,102494.81
2022-10-09T01:05:38.543Z,102490.34
2022-10-09T01:10:50.188Z,102484.72
2022-10-09T01:16:00.219Z,102474.69
2022-10-09T01:21:12.313Z,102480.78
2022-10-09T01:26:16.456Z,102478.66
2022-10-09T01:31:20.857Z,102479.53
2022-10-09T01:36:23.379Z,102474.94
2022-10-09T01:41:25.625Z,102475.44
2022-10-09T01:46:30.599Z,102470.97
2022-10-09T01:51:40.613Z,102463.91
2022-10-09T01:56:44.554Z,102454.22
2022-10-09T02:01:47.397Z,102457.03
2022-10-09T02:06:49.169Z,102448.13
2022-10-09T02:11:55.880Z,102447.63
2022-10-09T02:17:11.685Z,102446.25
2022-10-09T02:22:17.559Z,102441.25
2022-10-09T02:27:21.414Z,102434.69
2022-10-09T02:32:22.945Z,102439.59
2022-10-09T02:37:24.443Z,102430.91
2022-10-09T02:42:26.090Z,102437.31
2022-10-09T02:47:27.554Z,102435.47
2022-10-09T02:52:29.003Z,102436.22
2022-10-09T02:57:30.961Z,102438.69
2022-10-09T03:02:32.497Z,102427.38
2022-10-09T03:07:34.061Z,102420.94
2022-10-09T03:12:35.561Z,102418.34
2022-10-09T03:17:37.123Z,102416.50
2022-10-09T03:22:38.554Z,102431.31
2022-10-09T03:27:40.198Z,102426.34
2022-10-09T03:32:41.675Z,102427.63
2022-10-09T03:37:43.178Z,102422.44
2022-10-09T03:42:44.629Z,102419.47
2022-10-09T03:47:46.170Z,102413.34
2022-10-09T03:52:47.972Z,102419.31
2022-10-09T03:57:49.598Z,102415.63
2022-10-09T04:02:51.606Z,102420.19
2022-10-09T04:07:53.429Z,102414.97
2022-10-09T04:12:54.958Z,102416.50
2022-10-09T04:17:56.425Z,102410.44
2022-10-09T04:22:57.906Z,102415.44
2022-10-09T04:27:59.353Z,102414.53
2022-10-09T04:33:00.810Z,102412.72
2022-10-09T04:38:02.258Z,102404.25
2022-10-09T04:43:04.174Z,102399.19
2022-10-09T04:48:05.648Z,102395.72
2022-10-09T04:53:07.091Z,102388.00
2022-10-09T04:58:10.230Z,102390.19
2022-10-09T05:03:12.711Z,102387.59
2022-10-09T05:08:14.167Z,102387.59
2022-10-09T05:13:15.635Z,102384.53
2022-10-09T05:18:17.108Z,102374.16
2022-10-09T05:23:18.545Z,102379.38
2022-10-09T05:28:20.016Z,102391.41
2022-10-09T05:33:21.527Z,102386.59
2022-10-09T05:38:24.831Z,102395.50
2022-10-09T05:43:28.714Z,102404.81
2022-10-09T05:48:30.204Z,102400.31
2022-10-09T05:53:31.981Z,102408.28
2022-10-09T05:58:33.437Z,102402.13
2022-10-09T06:03:36.581Z,102399.91
2022-10-09T06:08:38.887Z,102394.94
2022-10-09T06:13:41.970Z,102395.19
2022-10-09T06:18:49.245Z,102397.19
2022-10-09T06:23:54.259Z,102400.03
2022-10-09T06:28:56.440Z,102403.13
2022-10-09T06:34:00.508Z,102403.50
2022-10-09T06:39:05.281Z,102400.66
2022-10-09T06:44:15.335Z,102404.00
2022-10-09T06:49:17.992Z,102403.25
2022-10-09T06:54:19.478Z,102406.25
2022-10-09T06:59:20.937Z,102406.59
2022-10-09T07:04:22.386Z,102400.03
2022-10-09T07:09:23.837Z,102405.59
2022-10-09T07:14:25.430Z,102411.06
2022-10-09T07:19:26.926Z,102421.06
2022-10-09T07:24:28.395Z,102425.88
2022-10-09T07:29:29.842Z,102419.78
2022-10-09T07:34:31.454Z,102419.75
2022-10-09T07:39:34.887Z,102424.06
2022-10-09T07:44:36.379Z,102433.19
2022-10-09T07:49:37.893Z,102429.56
2022-10-09T07:54:39.346Z,102433.88
2022-10-09T07:59:41.227Z,102432.28
2022-10-09T08:04:42.736Z,102438.44
2022-10-09T08:09:44.205Z,102427.88
2022-10-09T08:14:48.938Z,102427.25
2022-10-09T08:19:50.410Z,102424.16
2022-10-09T08:24:51.900Z,102431.41
2022-10-09T08:29:53.372Z,102428.16
2022-10-09T08:34:54.882Z,102414.06
2022-10-09T08:39:57.685Z,102411.53
2022-10-09T08:44:59.254Z,102411.09
2022-10-09T08:50:09.118Z,102414.59
2022-10-09T08:55:20.185Z,102408.00
2022-10-09T09:00:28.727Z,102409.16
2022-10-09T09:05:35.277Z,102396.75
2022-10-09T09:11:05.497Z,102393.88
2022-10-09T09:16:26.882Z,102393.88
2022-10-09T09:21:53.914Z,102397.88
2022-10-09T09:26:59.329Z,102386.16
2022-10-09T09:32:01.274Z,102386.16
2022-10-09T09:37:03.225Z,102381.38
2022-10-09T09:42:10.734Z,102372.09
2022-10-09T09:47:38.336Z,102377.09
2022-10-09T09:52:45.444Z,102379.63
2022-10-09T09:57:47.149Z,102377.63
2022-10-09T10:02:50.332Z,102362.75
2022-10-09T10:07:52.584Z,102359.25
2022-10-09T10:12:57.787Z,102354.41
2022-10-09T10:18:01.001Z,102354.34
2022-10-09T10:23:02.481Z,102352.19
2022-10-09T10:28:15.234Z,102343.00
2022-10-09T10:33:22.080Z,102340.88
2022-10-09T10:38:31.531Z,102334.47
2022-10-09T10:43:43.456Z,102329.69
2022-10-09T10:48:47.251Z,102324.66
2022-10-09T10:54:20.946Z,102317.13
2022-10-09T10:59:49.474Z,102306.34
2022-10-09T11:05:26.947Z,102297.16
2022-10-09T11:10:31.238Z,102289.13
2022-10-09T11:15:40.250Z,102288.78
2022-10-09T11:21:03.184Z,102274.78
2022-10-09T11:26:18.716Z,102270.97
2022-10-09T11:31:27.751Z,102258.47
2022-10-09T11:36:33.158Z,102251.19
2022-10-09T11:41:35.909Z,102241.03
2022-10-09T11:47:09.487Z,102219.72
2022-10-09T11:52:19.248Z,102229.72
2022-10-09T11:57:30.137Z,102218.22
2022-10-09T12:02:32.039Z,102206.84
2022-10-09T12:07:36.652Z,102190.03
2022-10-09T12:12:38.836Z,102179.91
2022-10-09T12:17:48.268Z,102169.59
2022-10-09T12:23:21.285Z,102154.63
2022-10-09T12:28:36.090Z,102147.91
2022-10-09T12:33:45.242Z,102132.47
2022-10-09T12:38:46.722Z,102124.22
2022-10-09T12:43:51.015Z,102115.63
2022-10-09T12:48:53.146Z,102099.69
2022-10-09T12:53:55.356Z,102088.72
2022-10-09T12:58:58.560Z,102072.72
2022-10-09T13:04:05.927Z,102061.94
2022-10-09T13:09:17.211Z,102052.69
2022-10-09T13:14:25.870Z,102048.53
2022-10-09T13:19:35.621Z,102037.53
2022-10-09T13:24:37.185Z,102032.03
2022-10-09T13:29:39.077Z,102024.47
2022-10-09T13:34:40.837Z,102011.28
2022-10-09T13:39:42.386Z,102004.06
2022-10-09T13:44:44.054Z,101990.31
2022-10-09T13:49:45.503Z,101977.44
2022-10-09T13:54:47.064Z,101968.66
2022-10-09T13:59:48.530Z,101965.38
2022-10-09T14:04:50.128Z,101956.78
2022-10-09T14:09:53.154Z,101956.28
2022-10-09T14:14:54.872Z,101941.16
2022-10-09T14:19:56.457Z,101934.44
2022-10-09T14:24:57.984Z,101917.63
2022-10-09T14:29:59.535Z,101938.41
2022-10-09T14:35:01.119Z,101902.16
2022-10-09T14:40:03.529Z,101893.56
2022-10-09T14:45:06.001Z,101884.81
2022-10-09T14:50:08.436Z,101876.06
2022-10-09T14:55:10.081Z,101880.88
2022-10-09T15:00:12.375Z,101866.63
2022-10-09T15:05:13.923Z,101862.31
2022-10-09T15:10:15.490Z,101852.38
2022-10-09T15:15:17.161Z,101863.56
2022-10-09T15:20:20.142Z,101835.72
2022-10-09T15:25:23.580Z,101839.31
2022-10-09T15:30:25.120Z,101812.50
2022-10-09T15:35:27.040Z,101812.88
2022-10-09T15:40:29.063Z,101805.16
2022-10-09T15:45:31.103Z,101812.53
2022-10-09T15:50:36.146Z,101784.88
2022-10-09T15:55:38.352Z,101796.56
2022-10-09T16:00:43.583Z,101782.13
2022-10-09T16:05:49.585Z,101795.53
2022-10-09T16:10:55.414Z,101787.47
2022-10-09T16:15:57.070Z,101778.19
2022-10-09T16:21:07.584Z,101772.00
2022-10-09T16:26:09.319Z,101764.94
2022-10-09T16:31:18.796Z,101771.13
2022-10-09T16:36:20.456Z,101779.00
2022-10-09T16:41:22.953Z,101766.63
2022-10-09T16:46:30.451Z,101753.22
2022-10-09T16:51:33.252Z,101763.69
2022-10-09T16:56:38.875Z,101748.22
2022-10-09T17:01:45.024Z,101744.38
2022-10-09T17:06:46.671Z,101751.91
2022-10-09T17:11:48.964Z,101758.97
2022-10-09T17:16:50.554Z,101756.72
2022-10-09T17:21:55.716Z,101739.19
2022-10-09T17:26:57.369Z,101743.31
2022-10-09T17:31:58.917Z,101743.47
2022-10-09T17:37:00.502Z,101754.66
2022-10-09T17:42:02.039Z,101740.34
2022-10-09T17:47:05.325Z,101727.69
2022-10-09T17:52:06.903Z,101752.94
2022-10-09T17:57:12.310Z,101752.22
2022-10-09T18:02:13.900Z,101731.78
2022-10-09T18:07:19.400Z,101736.75
2022-10-09T18:12:20.941Z,101731.78
2022-10-09T18:17:22.546Z,101724.94
2022-10-09T18:22:24.120Z,101706.19
2022-10-09T18:27:26.657Z,101708.78
2022-10-09T18:32:28.162Z,101696.63
2022-10-09T18:37:29.725Z,101716.53
2022-10-09T18:42:31.267Z,101697.78
2022-10-09T18:47:35.109Z,101699.66
2022-10-09T18:52:37.916Z,101690.22
2022-10-09T18:57:41.017Z,101699.34
2022-10-09T19:02:42.600Z,101683.72
2022-10-09T19:07:44.114Z,101666.38
2022-10-09T19:12:46.391Z,101664.66
2022-10-09T19:17:48.133Z,101661.25
2022-10-09T19:22:49.895Z,101661.06
2022-10-09T19:27:51.627Z,101668.97
2022-10-09T19:32:53.464Z,101658.66
2022-10-09T19:37:54.997Z,101641.31
2022-10-09T19:42:56.699Z,101660.22
2022-10-09T19:47:58.554Z,101634.47
2022-10-09T19:53:03.366Z,101645.63
2022-10-09T19:58:05.395Z,101633.59
2022-10-09T20:03:06.917Z,101621.56
2022-10-09T20:08:08.495Z,101624.19
2022-10-09T20:13:09.991Z,101627.94
2022-10-09T20:18:11.556Z,101600.47
2022-10-09T20:23:13.093Z,101594.00
2022-10-09T20:28:15.397Z,101599.47
2022-10-09T20:33:17.005Z,101584.88
2022-10-09T20:38:21.994Z,101587.28
2022-10-09T20:43:27.239Z,101589.88
2022-10-09T20:48:28.811Z,101595.66
2022-10-09T20:53:30.637Z,101582.63
2022-10-09T20:58:32.751Z,101556.19
2022-10-09T21:03:35.603Z,101576.59
2022-10-09T21:08:37.733Z,101570.22
2022-10-09T21:13:40.615Z,101534.94
2022-10-09T21:18:42.791Z,101528.59
2022-10-09T21:23:44.964Z,101527.75
2022-10-09T21:28:47.410Z,101536.16
2022-10-09T21:33:49.860Z,101518.50
2022-10-09T21:38:51.430Z,101493.59
2022-10-09T21:43:52.919Z,101502.75
2022-10-09T21:48:54.784Z,101492.38
2022-10-09T21:53:56.365Z,101485.56
2022-10-09T21:58:57.906Z,101491.34
2022-10-09T22:03:59.500Z,101474.25
2022-10-09T22:09:01.014Z,101479.88
2022-10-09T22:14:02.871Z,101478.38
2022-10-09T22:19:04.384Z,101467.72
2022-10-09T22:24:06.233Z,101476.28
2022-10-09T22:29:07.762Z,101474.03
2022-10-09T22:34:09.561Z,101462.41
2022-10-09T22:39:12.403Z,101459.97
2022-10-09T22:44:13.900Z,101454.69
2022-10-09T22:49:17.630Z,101471.16
2022-10-09T22:54:19.270Z,101472.00
2022-10-09T22:59:20.905Z,101463.44
2022-10-09T23:04:23.392Z,101455.53
2022-10-09T23:09:27.548Z,101419.41
2022-10-09T23:14:29.038Z,101419.06
2022-10-09T23:19:30.587Z,101417.00
2022-10-09T23:24:32.111Z,101408.06
2022-10-09T23:29:33.669Z,101400.88
2022-10-09T23:34:35.187Z,101394.34
2022-10-09T23:39:36.796Z,101397.81
2022-10-09T23:44:38.339Z,101396.47
2022-10-09T23:49:39.857Z,101394.03
2022-10-09T23:54:41.453Z,101386.66
2022-10-09T23:59:43.042Z,101388.38
